sensor_id;sensor_type;location;lat;lon;timestamp;temperature;humidity
43185;DHT22;28803;52.308;19.096;2023-06-24T00:00:58;17.40;80.30
43185;DHT22;28803;52.308;19.096;2023-06-24T00:03:35;17.40;82.10
43185;DHT22;28803;52.308;19.096;2023-06-24T00:06:04;17.40;87.30
43185;DHT22;28803;52.308;19.096;2023-06-24T00:08:31;17.30;90.00
43185;DHT22;28803;52.308;19.096;2023-06-24T00:11:03;17.40;94.90
43185;DHT22;28803;52.308;19.096;2023-06-24T00:13:31;17.30;95.20
43185;DHT22;28803;52.308;19.096;2023-06-24T00:15:58;17.40;97.00
43185;DHT22;28803;52.308;19.096;2023-06-24T00:18:25;17.30;98.50
43185;DHT22;28803;52.308;19.096;2023-06-24T00:20:56;17.30;98.70
43185;DHT22;28803;52.308;19.096;2023-06-24T00:23:23;17.30;98.60
43185;DHT22;28803;52.308;19.096;2023-06-24T00:25:55;17.30;99.80
43185;DHT22;28803;52.308;19.096;2023-06-24T00:28:23;17.40;99.90
43185;DHT22;28803;52.308;19.096;2023-06-24T00:30:50;17.40;99.90
43185;DHT22;28803;52.308;19.096;2023-06-24T00:33:18;17.30;99.90
43185;DHT22;28803;52.308;19.096;2023-06-24T00:35:46;17.40;99.90
43185;DHT22;28803;52.308;19.096;2023-06-24T00:38:14;17.30;99.90
43185;DHT22;28803;52.308;19.096;2023-06-24T00:40:41;17.40;99.90
43185;DHT22;28803;52.308;19.096;2023-06-24T00:43:09;17.40;99.90
43185;DHT22;28803;52.308;19.096;2023-06-24T00:45:37;17.30;99.90
43185;DHT22;28803;52.308;19.096;2023-06-24T00:48:04;17.30;99.90
43185;DHT22;28803;52.308;19.096;2023-06-24T00:50:32;17.30;99.90
43185;DHT22;28803;52.308;19.096;2023-06-24T00:52:59;17.30;99.90
43185;DHT22;28803;52.308;19.096;2023-06-24T00:55:27;17.30;99.90
43185;DHT22;28803;52.308;19.096;2023-06-24T00:57:56;17.30;99.90
43185;DHT22;28803;52.308;19.096;2023-06-24T01:00:24;17.30;99.90
43185;DHT22;28803;52.308;19.096;2023-06-24T01:02:52;17.30;99.90
43185;DHT22;28803;52.308;19.096;2023-06-24T01:05:19;17.30;99.90
43185;DHT22;28803;52.308;19.096;2023-06-24T01:07:51;17.30;99.90
43185;DHT22;28803;52.308;19.096;2023-06-24T01:10:23;17.30;99.90
43185;DHT22;28803;52.308;19.096;2023-06-24T01:12:51;17.30;99.90
43185;DHT22;28803;52.308;19.096;2023-06-24T01:15:19;17.30;99.90
43185;DHT22;28803;52.308;19.096;2023-06-24T01:18:02;17.30;99.90
43185;DHT22;28803;52.308;19.096;2023-06-24T01:31:59;17.20;99.90
43185;DHT22;28803;52.308;19.096;2023-06-24T01:35:07;17.20;99.90
43185;DHT22;28803;52.308;19.096;2023-06-24T01:37:52;17.20;99.90
43185;DHT22;28803;52.308;19.096;2023-06-24T01:40:26;17.20;99.90
43185;DHT22;28803;52.308;19.096;2023-06-24T01:42:57;17.20;99.90
43185;DHT22;28803;52.308;19.096;2023-06-24T01:45:36;17.10;99.90
43185;DHT22;28803;52.308;19.096;2023-06-24T01:48:18;17.20;99.90
43185;DHT22;28803;52.308;19.096;2023-06-24T01:50:57;17.10;99.90
43185;DHT22;28803;52.308;19.096;2023-06-24T01:53:27;17.10;99.90
43185;DHT22;28803;52.308;19.096;2023-06-24T01:55:58;17.10;99.90
43185;DHT22;28803;52.308;19.096;2023-06-24T01:58:26;17.10;99.90
43185;DHT22;28803;52.308;19.096;2023-06-24T02:00:54;17.10;99.90
43185;DHT22;28803;52.308;19.096;2023-06-24T02:03:28;17.10;99.90
43185;DHT22;28803;52.308;19.096;2023-06-24T02:05:57;17.10;99.90
43185;DHT22;28803;52.308;19.096;2023-06-24T02:08:33;17.10;99.90
43185;DHT22;28803;52.308;19.096;2023-06-24T02:11:02;17.10;99.90
43185;DHT22;28803;52.308;19.096;2023-06-24T02:13:31;17.10;99.90
43185;DHT22;28803;52.308;19.096;2023-06-24T02:16:00;17.10;99.90
43185;DHT22;28803;52.308;19.096;2023-06-24T02:18:29;17.10;99.90
43185;DHT22;28803;52.308;19.096;2023-06-24T02:21:00;17.10;99.90
43185;DHT22;28803;52.308;19.096;2023-06-24T02:23:28;17.10;99.90
43185;DHT22;28803;52.308;19.096;2023-06-24T02:25:57;17.10;99.90
43185;DHT22;28803;52.308;19.096;2023-06-24T02:28:25;17.00;99.90
43185;DHT22;28803;52.308;19.096;2023-06-24T02:30:53;17.00;99.90
43185;DHT22;28803;52.308;19.096;2023-06-24T02:33:22;17.00;99.90
43185;DHT22;28803;52.308;19.096;2023-06-24T02:35:50;17.00;99.90
43185;DHT22;28803;52.308;19.096;2023-06-24T02:38:17;17.00;99.90
43185;DHT22;28803;52.308;19.096;2023-06-24T02:40:48;17.00;99.90
43185;DHT22;28803;52.308;19.096;2023-06-24T02:43:17;17.00;99.90
43185;DHT22;28803;52.308;19.096;2023-06-24T02:45:46;17.00;99.90
43185;DHT22;28803;52.308;19.096;2023-06-24T02:48:15;16.90;99.90
43185;DHT22;28803;52.308;19.096;2023-06-24T02:50:43;16.90;99.90
43185;DHT22;28803;52.308;19.096;2023-06-24T02:53:12;16.90;99.90
43185;DHT22;28803;52.308;19.096;2023-06-24T02:55:41;17.00;99.90
43185;DHT22;28803;52.308;19.096;2023-06-24T02:58:09;16.90;99.90
43185;DHT22;28803;52.308;19.096;2023-06-24T03:00:38;17.00;99.90
43185;DHT22;28803;52.308;19.096;2023-06-24T03:03:06;17.00;99.90
43185;DHT22;28803;52.308;19.096;2023-06-24T03:05:35;17.00;99.90
43185;DHT22;28803;52.308;19.096;2023-06-24T03:08:03;17.00;99.90
43185;DHT22;28803;52.308;19.096;2023-06-24T03:10:31;17.10;99.90
43185;DHT22;28803;52.308;19.096;2023-06-24T03:12:58;17.10;99.90
43185;DHT22;28803;52.308;19.096;2023-06-24T03:15:25;17.10;99.90
43185;DHT22;28803;52.308;19.096;2023-06-24T03:17:54;17.20;99.90
43185;DHT22;28803;52.308;19.096;2023-06-24T03:20:22;17.10;99.90
43185;DHT22;28803;52.308;19.096;2023-06-24T03:22:51;17.10;99.90
43185;DHT22;28803;52.308;19.096;2023-06-24T03:25:19;17.10;99.90
43185;DHT22;28803;52.308;19.096;2023-06-24T03:27:46;17.10;99.90
43185;DHT22;28803;52.308;19.096;2023-06-24T03:30:14;17.20;99.90
43185;DHT22;28803;52.308;19.096;2023-06-24T03:32:43;17.20;99.90
43185;DHT22;28803;52.308;19.096;2023-06-24T03:35:14;17.20;99.90
43185;DHT22;28803;52.308;19.096;2023-06-24T03:37:41;17.20;99.90
43185;DHT22;28803;52.308;19.096;2023-06-24T03:40:09;17.30;97.40
43185;DHT22;28803;52.308;19.096;2023-06-24T03:42:36;17.30;96.90
43185;DHT22;28803;52.308;19.096;2023-06-24T03:45:04;17.40;95.20
43185;DHT22;28803;52.308;19.096;2023-06-24T03:47:31;17.30;94.60
43185;DHT22;28803;52.308;19.096;2023-06-24T03:49:59;17.40;96.00
43185;DHT22;28803;52.308;19.096;2023-06-24T03:52:26;17.40;94.30
43185;DHT22;28803;52.308;19.096;2023-06-24T03:54:54;17.50;99.80
43185;DHT22;28803;52.308;19.096;2023-06-24T03:57:21;17.50;98.00
43185;DHT22;28803;52.308;19.096;2023-06-24T03:59:49;17.50;96.50
43185;DHT22;28803;52.308;19.096;2023-06-24T04:02:16;17.60;95.20
43185;DHT22;28803;52.308;19.096;2023-06-24T04:04:45;17.60;95.40
43185;DHT22;28803;52.308;19.096;2023-06-24T04:07:12;17.70;94.90
43185;DHT22;28803;52.308;19.096;2023-06-24T04:09:41;17.70;94.80
43185;DHT22;28803;52.308;19.096;2023-06-24T04:12:08;17.80;92.60
43185;DHT22;28803;52.308;19.096;2023-06-24T04:14:36;17.80;92.90
43185;DHT22;28803;52.308;19.096;2023-06-24T04:17:03;17.80;91.10
43185;DHT22;28803;52.308;19.096;2023-06-24T04:19:31;17.80;87.00
43185;DHT22;28803;52.308;19.096;2023-06-24T04:21:58;17.80;86.60
43185;DHT22;28803;52.308;19.096;2023-06-24T04:24:25;17.80;83.60
43185;DHT22;28803;52.308;19.096;2023-06-24T04:26:52;17.90;86.20
43185;DHT22;28803;52.308;19.096;2023-06-24T04:29:22;17.90;87.70
43185;DHT22;28803;52.308;19.096;2023-06-24T04:31:49;18.00;85.50
43185;DHT22;28803;52.308;19.096;2023-06-24T04:34:17;18.10;76.30
43185;DHT22;28803;52.308;19.096;2023-06-24T04:36:44;18.20;70.00
43185;DHT22;28803;52.308;19.096;2023-06-24T04:39:11;18.30;71.90
43185;DHT22;28803;52.308;19.096;2023-06-24T04:41:38;18.40;86.00
43185;DHT22;28803;52.308;19.096;2023-06-24T04:44:06;18.40;84.70
43185;DHT22;28803;52.308;19.096;2023-06-24T04:46:33;18.40;88.90
43185;DHT22;28803;52.308;19.096;2023-06-24T04:49:02;18.40;90.40
43185;DHT22;28803;52.308;19.096;2023-06-24T04:51:29;18.50;94.80
43185;DHT22;28803;52.308;19.096;2023-06-24T04:53:56;18.50;94.30
43185;DHT22;28803;52.308;19.096;2023-06-24T04:56:24;18.70;93.90
43185;DHT22;28803;52.308;19.096;2023-06-24T04:58:51;18.80;90.80
43185;DHT22;28803;52.308;19.096;2023-06-24T05:01:18;19.00;86.40
43185;DHT22;28803;52.308;19.096;2023-06-24T05:03:47;19.20;74.00
43185;DHT22;28803;52.308;19.096;2023-06-24T05:06:22;19.30;72.10
43185;DHT22;28803;52.308;19.096;2023-06-24T05:08:49;19.40;60.70
43185;DHT22;28803;52.308;19.096;2023-06-24T05:11:16;19.50;55.60
43185;DHT22;28803;52.308;19.096;2023-06-24T05:13:44;19.50;49.40
43185;DHT22;28803;52.308;19.096;2023-06-24T05:16:13;19.50;38.90
43185;DHT22;28803;52.308;19.096;2023-06-24T05:18:41;19.60;31.30
43185;DHT22;28803;52.308;19.096;2023-06-24T05:21:08;19.60;24.20
43185;DHT22;28803;52.308;19.096;2023-06-24T05:23:36;19.70;20.50
43185;DHT22;28803;52.308;19.096;2023-06-24T05:26:03;19.90;7.20
43185;DHT22;28803;52.308;19.096;2023-06-24T05:28:31;20.10;1.00
43185;DHT22;28803;52.308;19.096;2023-06-24T05:30:58;20.20;1.00
43185;DHT22;28803;52.308;19.096;2023-06-24T05:33:25;20.20;1.00
43185;DHT22;28803;52.308;19.096;2023-06-24T05:35:52;20.30;1.00
43185;DHT22;28803;52.308;19.096;2023-06-24T05:38:20;20.40;1.00
43185;DHT22;28803;52.308;19.096;2023-06-24T05:40:47;20.40;1.00
43185;DHT22;28803;52.308;19.096;2023-06-24T05:43:15;20.40;1.00
43185;DHT22;28803;52.308;19.096;2023-06-24T05:45:42;20.40;1.00
43185;DHT22;28803;52.308;19.096;2023-06-24T05:48:10;20.30;1.00
43185;DHT22;28803;52.308;19.096;2023-06-24T05:50:37;20.30;1.00
43185;DHT22;28803;52.308;19.096;2023-06-24T05:53:05;20.20;1.00
43185;DHT22;28803;52.308;19.096;2023-06-24T05:55:32;20.20;1.00
43185;DHT22;28803;52.308;19.096;2023-06-24T05:58:00;20.20;1.00
43185;DHT22;28803;52.308;19.096;2023-06-24T06:00:27;20.20;1.00
43185;DHT22;28803;52.308;19.096;2023-06-24T06:02:55;20.10;1.00
43185;DHT22;28803;52.308;19.096;2023-06-24T06:05:22;20.10;1.00
43185;DHT22;28803;52.308;19.096;2023-06-24T06:07:50;20.10;1.00
43185;DHT22;28803;52.308;19.096;2023-06-24T06:10:18;20.30;1.00
43185;DHT22;28803;52.308;19.096;2023-06-24T06:12:46;20.40;1.00
43185;DHT22;28803;52.308;19.096;2023-06-24T06:15:13;20.60;1.00
43185;DHT22;28803;52.308;19.096;2023-06-24T06:17:41;20.60;1.00
43185;DHT22;28803;52.308;19.096;2023-06-24T06:20:09;20.70;1.00
43185;DHT22;28803;52.308;19.096;2023-06-24T06:22:37;20.90;1.00
43185;DHT22;28803;52.308;19.096;2023-06-24T06:25:07;20.90;1.00
43185;DHT22;28803;52.308;19.096;2023-06-24T06:27:34;20.90;1.00
43185;DHT22;28803;52.308;19.096;2023-06-24T06:30:03;20.90;1.00
43185;DHT22;28803;52.308;19.096;2023-06-24T06:32:31;20.70;1.00
43185;DHT22;28803;52.308;19.096;2023-06-24T06:34:58;20.60;1.00
43185;DHT22;28803;52.308;19.096;2023-06-24T06:37:26;20.50;1.00
43185;DHT22;28803;52.308;19.096;2023-06-24T06:39:53;20.50;1.00
43185;DHT22;28803;52.308;19.096;2023-06-24T06:42:20;20.50;1.00
43185;DHT22;28803;52.308;19.096;2023-06-24T06:44:47;20.50;1.00
43185;DHT22;28803;52.308;19.096;2023-06-24T06:47:15;20.50;1.00
43185;DHT22;28803;52.308;19.096;2023-06-24T06:49:42;20.60;1.00
43185;DHT22;28803;52.308;19.096;2023-06-24T06:52:09;20.60;1.00
43185;DHT22;28803;52.308;19.096;2023-06-24T06:54:36;20.60;1.00
43185;DHT22;28803;52.308;19.096;2023-06-24T06:57:04;20.60;1.00
43185;DHT22;28803;52.308;19.096;2023-06-24T06:59:32;20.50;1.00
43185;DHT22;28803;52.308;19.096;2023-06-24T07:02:00;20.60;1.00
43185;DHT22;28803;52.308;19.096;2023-06-24T07:04:27;20.60;1.00
43185;DHT22;28803;52.308;19.096;2023-06-24T07:06:55;20.70;1.00
43185;DHT22;28803;52.308;19.096;2023-06-24T07:09:22;20.80;1.00
43185;DHT22;28803;52.308;19.096;2023-06-24T07:11:49;21.00;1.00
43185;DHT22;28803;52.308;19.096;2023-06-24T07:14:16;21.20;1.00
43185;DHT22;28803;52.308;19.096;2023-06-24T07:16:44;21.30;1.00
43185;DHT22;28803;52.308;19.096;2023-06-24T07:19:11;21.40;1.00
43185;DHT22;28803;52.308;19.096;2023-06-24T07:21:38;21.40;1.00
43185;DHT22;28803;52.308;19.096;2023-06-24T07:24:06;21.30;1.00
43185;DHT22;28803;52.308;19.096;2023-06-24T07:26:33;21.40;1.00
43185;DHT22;28803;52.308;19.096;2023-06-24T07:29:00;21.40;1.00
43185;DHT22;28803;52.308;19.096;2023-06-24T07:31:36;21.40;1.00
43185;DHT22;28803;52.308;19.096;2023-06-24T07:34:04;21.50;1.00
43185;DHT22;28803;52.308;19.096;2023-06-24T07:36:32;21.60;1.00
43185;DHT22;28803;52.308;19.096;2023-06-24T07:38:59;21.70;1.00
43185;DHT22;28803;52.308;19.096;2023-06-24T07:41:26;21.90;1.00
43185;DHT22;28803;52.308;19.096;2023-06-24T07:43:53;22.10;1.00
43185;DHT22;28803;52.308;19.096;2023-06-24T07:46:22;22.40;1.00
43185;DHT22;28803;52.308;19.096;2023-06-24T07:48:49;22.70;1.00
43185;DHT22;28803;52.308;19.096;2023-06-24T07:51:16;23.00;1.00
43185;DHT22;28803;52.308;19.096;2023-06-24T07:53:43;23.30;1.00
43185;DHT22;28803;52.308;19.096;2023-06-24T07:56:11;23.50;1.00
43185;DHT22;28803;52.308;19.096;2023-06-24T07:58:38;23.60;1.00
43185;DHT22;28803;52.308;19.096;2023-06-24T08:01:05;23.60;1.00
43185;DHT22;28803;52.308;19.096;2023-06-24T08:03:33;23.60;99.90
43185;DHT22;28803;52.308;19.096;2023-06-24T08:06:01;23.60;99.90
43185;DHT22;28803;52.308;19.096;2023-06-24T08:08:28;23.70;99.90
43185;DHT22;28803;52.308;19.096;2023-06-24T08:10:56;23.90;99.90
43185;DHT22;28803;52.308;19.096;2023-06-24T08:13:23;24.00;1.00
43185;DHT22;28803;52.308;19.096;2023-06-24T08:15:51;24.30;51.20
43185;DHT22;28803;52.308;19.096;2023-06-24T08:18:18;24.60;48.00
43185;DHT22;28803;52.308;19.096;2023-06-24T08:20:45;24.80;49.80
43185;DHT22;28803;52.308;19.096;2023-06-24T08:23:12;24.90;41.60
43185;DHT22;28803;52.308;19.096;2023-06-24T08:25:40;24.90;58.80
43185;DHT22;28803;52.308;19.096;2023-06-24T08:28:07;24.90;63.90
43185;DHT22;28803;52.308;19.096;2023-06-24T08:30:34;24.80;61.60
43185;DHT22;28803;52.308;19.096;2023-06-24T08:33:02;24.60;58.20
43185;DHT22;28803;52.308;19.096;2023-06-24T08:35:29;24.70;68.80
43185;DHT22;28803;52.308;19.096;2023-06-24T08:37:56;24.40;68.60
43185;DHT22;28803;52.308;19.096;2023-06-24T08:40:24;24.40;68.30
43185;DHT22;28803;52.308;19.096;2023-06-24T08:42:51;24.20;61.20
43185;DHT22;28803;52.308;19.096;2023-06-24T08:45:18;24.00;60.00
43185;DHT22;28803;52.308;19.096;2023-06-24T08:47:47;23.80;62.10
43185;DHT22;28803;52.308;19.096;2023-06-24T08:50:18;23.60;60.90
43185;DHT22;28803;52.308;19.096;2023-06-24T08:52:51;23.60;61.50
43185;DHT22;28803;52.308;19.096;2023-06-24T08:55:23;23.50;59.40
43185;DHT22;28803;52.308;19.096;2023-06-24T08:57:53;23.30;60.50
43185;DHT22;28803;52.308;19.096;2023-06-24T09:00:20;23.10;62.10
43185;DHT22;28803;52.308;19.096;2023-06-24T09:02:48;23.10;1.00
43185;DHT22;28803;52.308;19.096;2023-06-24T09:05:16;23.10;20.10
43185;DHT22;28803;52.308;19.096;2023-06-24T09:07:43;23.40;99.90
43185;DHT22;28803;52.308;19.096;2023-06-24T09:10:10;23.70;1.00
43185;DHT22;28803;52.308;19.096;2023-06-24T09:12:55;24.10;99.90
43185;DHT22;28803;52.308;19.096;2023-06-24T09:15:23;24.50;99.90
43185;DHT22;28803;52.308;19.096;2023-06-24T09:17:50;24.80;1.00
43185;DHT22;28803;52.308;19.096;2023-06-24T09:20:19;25.30;1.00
43185;DHT22;28803;52.308;19.096;2023-06-24T09:22:49;25.60;99.90
43185;DHT22;28803;52.308;19.096;2023-06-24T09:25:20;25.50;1.00
43185;DHT22;28803;52.308;19.096;2023-06-24T09:27:50;25.50;99.90
43185;DHT22;28803;52.308;19.096;2023-06-24T09:30:20;25.20;99.90
43185;DHT22;28803;52.308;19.096;2023-06-24T09:32:48;24.90;99.90
43185;DHT22;28803;52.308;19.096;2023-06-24T09:35:25;24.50;1.00
43185;DHT22;28803;52.308;19.096;2023-06-24T09:37:54;24.40;99.90
43185;DHT22;28803;52.308;19.096;2023-06-24T09:40:22;24.30;10.70
43185;DHT22;28803;52.308;19.096;2023-06-24T09:42:54;24.50;1.00
43185;DHT22;28803;52.308;19.096;2023-06-24T09:45:27;24.70;66.10
43185;DHT22;28803;52.308;19.096;2023-06-24T09:47:56;24.90;62.70
43185;DHT22;28803;52.308;19.096;2023-06-24T09:50:25;25.00;1.00
43185;DHT22;28803;52.308;19.096;2023-06-24T09:52:53;25.00;1.00
43185;DHT22;28803;52.308;19.096;2023-06-24T09:55:22;24.90;39.70
43185;DHT22;28803;52.308;19.096;2023-06-24T09:57:51;24.70;95.30
43185;DHT22;28803;52.308;19.096;2023-06-24T10:00:20;24.70;20.90
43185;DHT22;28803;52.308;19.096;2023-06-24T10:02:48;24.90;1.00
43185;DHT22;28803;52.308;19.096;2023-06-24T10:05:16;25.10;1.00
43185;DHT22;28803;52.308;19.096;2023-06-24T10:07:44;25.20;1.00
43185;DHT22;28803;52.308;19.096;2023-06-24T10:10:12;25.30;99.90
43185;DHT22;28803;52.308;19.096;2023-06-24T10:12:40;25.50;99.90
43185;DHT22;28803;52.308;19.096;2023-06-24T10:15:08;25.50;99.90
43185;DHT22;28803;52.308;19.096;2023-06-24T10:17:37;25.60;99.90
43185;DHT22;28803;52.308;19.096;2023-06-24T10:20:05;25.60;99.90
43185;DHT22;28803;52.308;19.096;2023-06-24T10:22:33;25.30;1.00
43185;DHT22;28803;52.308;19.096;2023-06-24T10:25:02;25.00;99.90
43185;DHT22;28803;52.308;19.096;2023-06-24T10:27:38;25.00;99.90
43185;DHT22;28803;52.308;19.096;2023-06-24T10:30:07;25.10;99.90
43185;DHT22;28803;52.308;19.096;2023-06-24T10:32:41;25.00;99.90
43185;DHT22;28803;52.308;19.096;2023-06-24T10:35:32;24.90;99.90
43185;DHT22;28803;52.308;19.096;2023-06-24T10:38:01;25.00;99.90
43185;DHT22;28803;52.308;19.096;2023-06-24T10:43:26;25.30;99.90
43185;DHT22;28803;52.308;19.096;2023-06-24T10:45:56;25.20;99.90
43185;DHT22;28803;52.308;19.096;2023-06-24T10:48:24;25.30;99.90
43185;DHT22;28803;52.308;19.096;2023-06-24T10:50:52;25.30;99.90
43185;DHT22;28803;52.308;19.096;2023-06-24T10:53:19;25.10;99.90
43185;DHT22;28803;52.308;19.096;2023-06-24T10:55:47;24.90;99.90
43185;DHT22;28803;52.308;19.096;2023-06-24T10:58:14;24.70;99.90
43185;DHT22;28803;52.308;19.096;2023-06-24T11:00:43;24.50;99.90
43185;DHT22;28803;52.308;19.096;2023-06-24T11:03:16;24.30;99.90
43185;DHT22;28803;52.308;19.096;2023-06-24T11:05:46;24.10;99.90
43185;DHT22;28803;52.308;19.096;2023-06-24T11:08:15;24.00;99.90
43185;DHT22;28803;52.308;19.096;2023-06-24T11:10:49;23.70;99.90
43185;DHT22;28803;52.308;19.096;2023-06-24T11:13:20;23.50;99.90
43185;DHT22;28803;52.308;19.096;2023-06-24T11:15:47;23.40;99.90
43185;DHT22;28803;52.308;19.096;2023-06-24T11:18:14;23.60;99.90
43185;DHT22;28803;52.308;19.096;2023-06-24T11:20:42;23.80;99.90
43185;DHT22;28803;52.308;19.096;2023-06-24T11:23:10;24.40;99.90
43185;DHT22;28803;52.308;19.096;2023-06-24T11:25:42;25.30;99.90
43185;DHT22;28803;52.308;19.096;2023-06-24T11:28:17;26.40;99.90
43185;DHT22;28803;52.308;19.096;2023-06-24T11:30:49;27.00;99.90
43185;DHT22;28803;52.308;19.096;2023-06-24T11:33:27;27.40;99.90
43185;DHT22;28803;52.308;19.096;2023-06-24T11:35:55;27.60;99.90
43185;DHT22;28803;52.308;19.096;2023-06-24T11:38:22;27.30;99.90
43185;DHT22;28803;52.308;19.096;2023-06-24T11:40:50;27.50;99.90
43185;DHT22;28803;52.308;19.096;2023-06-24T11:43:17;27.90;99.90
43185;DHT22;28803;52.308;19.096;2023-06-24T11:45:48;28.20;99.90
43185;DHT22;28803;52.308;19.096;2023-06-24T11:48:15;29.00;68.50
43185;DHT22;28803;52.308;19.096;2023-06-24T11:50:43;29.70;19.40
43185;DHT22;28803;52.308;19.096;2023-06-24T11:53:10;30.30;1.00
43185;DHT22;28803;52.308;19.096;2023-06-24T11:55:38;30.60;1.00
43185;DHT22;28803;52.308;19.096;2023-06-24T11:58:05;30.80;1.00
43185;DHT22;28803;52.308;19.096;2023-06-24T12:00:36;30.80;1.00
43185;DHT22;28803;52.308;19.096;2023-06-24T12:03:08;31.00;1.00
43185;DHT22;28803;52.308;19.096;2023-06-24T12:05:39;31.10;1.00
43185;DHT22;28803;52.308;19.096;2023-06-24T12:08:13;30.80;1.00
43185;DHT22;28803;52.308;19.096;2023-06-24T12:10:43;30.10;1.00
43185;DHT22;28803;52.308;19.096;2023-06-24T12:13:12;29.80;1.00
43185;DHT22;28803;52.308;19.096;2023-06-24T12:15:40;29.30;1.00
43185;DHT22;28803;52.308;19.096;2023-06-24T12:18:08;28.90;1.00
43185;DHT22;28803;52.308;19.096;2023-06-24T12:20:35;28.40;1.00
43185;DHT22;28803;52.308;19.096;2023-06-24T12:23:05;28.20;1.00
43185;DHT22;28803;52.308;19.096;2023-06-24T12:25:33;28.10;1.00
43185;DHT22;28803;52.308;19.096;2023-06-24T12:28:00;28.20;1.00
43185;DHT22;28803;52.308;19.096;2023-06-24T12:30:28;28.60;1.00
43185;DHT22;28803;52.308;19.096;2023-06-24T12:32:55;29.30;1.00
43185;DHT22;28803;52.308;19.096;2023-06-24T12:35:23;29.50;1.00
43185;DHT22;28803;52.308;19.096;2023-06-24T12:37:53;29.20;1.00
43185;DHT22;28803;52.308;19.096;2023-06-24T12:40:21;29.70;1.00
43185;DHT22;28803;52.308;19.096;2023-06-24T12:42:48;31.30;1.00
43185;DHT22;28803;52.308;19.096;2023-06-24T12:45:15;33.20;1.00
43185;DHT22;28803;52.308;19.096;2023-06-24T12:47:43;34.90;1.00
43185;DHT22;28803;52.308;19.096;2023-06-24T12:50:10;36.80;99.90
43185;DHT22;28803;52.308;19.096;2023-06-24T12:52:37;37.70;99.90
43185;DHT22;28803;52.308;19.096;2023-06-24T12:55:07;39.00;99.90
43185;DHT22;28803;52.308;19.096;2023-06-24T12:57:35;39.70;99.90
43185;DHT22;28803;52.308;19.096;2023-06-24T13:00:04;39.80;99.90
43185;DHT22;28803;52.308;19.096;2023-06-24T13:02:35;39.60;99.90
43185;DHT22;28803;52.308;19.096;2023-06-24T13:05:03;39.30;99.90
43185;DHT22;28803;52.308;19.096;2023-06-24T13:07:31;39.20;99.90
43185;DHT22;28803;52.308;19.096;2023-06-24T13:10:00;39.40;99.90
43185;DHT22;28803;52.308;19.096;2023-06-24T13:12:28;39.70;99.90
43185;DHT22;28803;52.308;19.096;2023-06-24T13:14:56;39.60;99.90
43185;DHT22;28803;52.308;19.096;2023-06-24T13:17:23;38.40;99.90
43185;DHT22;28803;52.308;19.096;2023-06-24T13:19:51;37.70;99.90
43185;DHT22;28803;52.308;19.096;2023-06-24T13:22:18;37.10;99.90
43185;DHT22;28803;52.308;19.096;2023-06-24T13:24:45;36.30;99.90
43185;DHT22;28803;52.308;19.096;2023-06-24T13:27:13;35.70;99.90
43185;DHT22;28803;52.308;19.096;2023-06-24T13:29:40;34.30;99.90
43185;DHT22;28803;52.308;19.096;2023-06-24T13:32:08;33.40;99.90
43185;DHT22;28803;52.308;19.096;2023-06-24T13:34:35;33.60;99.90
43185;DHT22;28803;52.308;19.096;2023-06-24T13:37:02;34.80;99.90
43185;DHT22;28803;52.308;19.096;2023-06-24T13:39:30;35.20;99.90
43185;DHT22;28803;52.308;19.096;2023-06-24T13:41:58;35.60;99.90
43185;DHT22;28803;52.308;19.096;2023-06-24T13:44:26;36.40;99.90
43185;DHT22;28803;52.308;19.096;2023-06-24T13:46:53;37.40;99.90
43185;DHT22;28803;52.308;19.096;2023-06-24T13:49:21;37.70;99.90
43185;DHT22;28803;52.308;19.096;2023-06-24T13:51:48;38.00;99.90
43185;DHT22;28803;52.308;19.096;2023-06-24T13:54:16;39.10;99.90
43185;DHT22;28803;52.308;19.096;2023-06-24T13:56:44;39.90;99.90
43185;DHT22;28803;52.308;19.096;2023-06-24T13:59:11;39.80;99.90
43185;DHT22;28803;52.308;19.096;2023-06-24T14:01:39;39.00;99.90
43185;DHT22;28803;52.308;19.096;2023-06-24T14:04:06;38.10;99.90
43185;DHT22;28803;52.308;19.096;2023-06-24T14:06:33;36.20;99.90
43185;DHT22;28803;52.308;19.096;2023-06-24T14:09:01;35.10;99.90
43185;DHT22;28803;52.308;19.096;2023-06-24T14:11:28;34.90;99.90
43185;DHT22;28803;52.308;19.096;2023-06-24T14:13:55;35.20;99.90
43185;DHT22;28803;52.308;19.096;2023-06-24T14:16:22;35.80;99.90
43185;DHT22;28803;52.308;19.096;2023-06-24T14:18:50;36.20;99.90
43185;DHT22;28803;52.308;19.096;2023-06-24T14:21:17;36.30;99.90
43185;DHT22;28803;52.308;19.096;2023-06-24T14:23:45;36.90;99.90
43185;DHT22;28803;52.308;19.096;2023-06-24T14:26:12;37.00;99.90
43185;DHT22;28803;52.308;19.096;2023-06-24T14:28:39;37.40;99.90
43185;DHT22;28803;52.308;19.096;2023-06-24T14:31:06;37.10;99.90
43185;DHT22;28803;52.308;19.096;2023-06-24T14:33:34;37.00;99.90
43185;DHT22;28803;52.308;19.096;2023-06-24T14:36:01;37.30;99.90
43185;DHT22;28803;52.308;19.096;2023-06-24T14:38:28;37.70;99.90
43185;DHT22;28803;52.308;19.096;2023-06-24T14:40:56;38.50;99.90
43185;DHT22;28803;52.308;19.096;2023-06-24T14:43:24;37.90;99.90
43185;DHT22;28803;52.308;19.096;2023-06-24T14:45:52;37.60;99.90
43185;DHT22;28803;52.308;19.096;2023-06-24T14:48:20;37.80;99.90
43185;DHT22;28803;52.308;19.096;2023-06-24T14:50:47;38.10;99.90
43185;DHT22;28803;52.308;19.096;2023-06-24T14:53:15;37.60;99.90
43185;DHT22;28803;52.308;19.096;2023-06-24T14:55:42;37.50;99.90
43185;DHT22;28803;52.308;19.096;2023-06-24T14:58:09;37.70;99.90
43185;DHT22;28803;52.308;19.096;2023-06-24T15:00:36;37.20;99.90
43185;DHT22;28803;52.308;19.096;2023-06-24T15:03:05;36.30;99.90
43185;DHT22;28803;52.308;19.096;2023-06-24T15:05:34;34.40;99.90
43185;DHT22;28803;52.308;19.096;2023-06-24T15:08:02;32.50;99.90
43185;DHT22;28803;52.308;19.096;2023-06-24T15:10:29;31.10;99.90
43185;DHT22;28803;52.308;19.096;2023-06-24T15:12:56;30.10;99.90
43185;DHT22;28803;52.308;19.096;2023-06-24T15:15:23;29.40;99.90
43185;DHT22;28803;52.308;19.096;2023-06-24T15:17:51;28.60;99.90
43185;DHT22;28803;52.308;19.096;2023-06-24T15:20:18;27.50;99.90
43185;DHT22;28803;52.308;19.096;2023-06-24T15:22:45;27.40;99.90
43185;DHT22;28803;52.308;19.096;2023-06-24T15:25:13;26.90;99.90
43185;DHT22;28803;52.308;19.096;2023-06-24T15:27:40;26.90;99.90
43185;DHT22;28803;52.308;19.096;2023-06-24T15:30:07;26.80;99.90
43185;DHT22;28803;52.308;19.096;2023-06-24T15:32:35;26.70;99.90
43185;DHT22;28803;52.308;19.096;2023-06-24T15:35:03;26.60;99.90
43185;DHT22;28803;52.308;19.096;2023-06-24T15:37:31;26.60;99.90
43185;DHT22;28803;52.308;19.096;2023-06-24T15:39:58;26.40;99.90
43185;DHT22;28803;52.308;19.096;2023-06-24T15:42:25;26.20;99.90